Time;durP1;ratioP1;P1;durP2;ratioP2;P2;SDS_P1;SDS_P2;PMS_P1;PMS_P2;Temp;Humidity;BMP_temperature;BMP_pressure;BME280_temperature;BME280_humidity;BME280_pressure;Samples;Min_cycle;Max_cycle;Signal;HPM_P1;HPM_P2
2022/09/30 00:01:07;;;;;;;;;;;;;;;;;;5070192;28;20007;-75
2022/09/30 00:03:33;;;;;;;;;;;;;;;;;;5053031;28;19917;-75
2022/09/30 00:05:58;;;;;;;;;;;;;;;;;;5053411;28;20016;-75
2022/09/30 00:08:24;;;;;;;;;;;;;;;;;;5065961;28;20442;-75
2022/09/30 00:10:49;;;;;;;;;;;;;;;;;;5074281;28;19912;-75
2022/09/30 00:13:14;;;;;;;;;;;;;;;;;;5072568;28;20291;-75
2022/09/30 00:15:40;;;;;;;;;;;;;;;;;;5073160;28;20320;-75
2022/09/30 00:18:05;;;;;;;;;;;;;;;;;;5070783;28;19966;-75
2022/09/30 00:20:30;;;;;;;;;;;;;;;;;;5072585;28;20341;-75
2022/09/30 00:22:56;;;;;;;;;;;;;;;;;;5073882;28;20268;-75
2022/09/30 00:25:21;;;;;;;;;;;;;;;;;;5064592;28;20065;-75
2022/09/30 00:27:46;;;;;;;;;;;;;;;;;;5053884;28;20332;-75
2022/09/30 00:30:12;;;;;;;;;;;;;;;;;;5058608;28;19943;-75
2022/09/30 00:32:37;;;;;;;;;;;;;;;;;;5072471;28;19912;-76
2022/09/30 00:35:02;;;;;;;;;;;;;;;;;;5073764;28;19913;-75
2022/09/30 00:37:28;;;;;;;;;;;;;;;;;;5069392;28;19970;-75
2022/09/30 00:39:53;;;;;;;;;;;;;;;;;;5089431;28;19947;-75
2022/09/30 00:42:18;;;;;;;;;;;;;;;;;;5068484;28;19924;-75
2022/09/30 00:44:44;;;;;;;;;;;;;;;;;;5072337;28;19925;-75
2022/09/30 00:47:09;;;;;;;;;;;;;;;;;;5072236;28;19921;-75
2022/09/30 00:49:35;;;;;;;;;;;;;;;;;;5073050;28;19999;-75
2022/09/30 00:52:00;;;;;;;;;;;;;;;;;;5088951;28;19916;-74
2022/09/30 00:54:25;;;;;;;;;;;;;;;;;;5069128;28;19913;-74
2022/09/30 00:56:50;;;;;;;;;;;;;;;;;;5088218;28;20337;-75
2022/09/30 00:59:16;;;;;;;;;;;;;;;;;;5073298;28;20340;-75
2022/09/30 01:01:42;;;;;;;;;;;;;;;;;;5087392;28;19912;-75
2022/09/30 01:04:07;;;;;;;;;;;;;;;;;;5073162;28;20299;-75
2022/09/30 01:06:32;;;;;;;;;;;;;;;;;;5068259;28;19958;-75
2022/09/30 01:08:58;;;;;;;;;;;;;;;;;;5073188;28;20364;-75
2022/09/30 01:11:23;;;;;;;;;;;;;;;;;;5069959;28;19948;-74
2022/09/30 01:13:48;;;;;;;;;;;;;;;;;;5069888;28;19913;-75
2022/09/30 01:16:14;;;;;;;;;;;;;;;;;;5073002;28;19957;-75
2022/09/30 01:18:40;;;;;;;;;;;;;;;;;;5071695;28;19912;-75
2022/09/30 01:21:05;;;;;;;;;;;;;;;;;;5088522;28;19949;-75
2022/09/30 01:23:30;;;;;;;;;;;;;;;;;;5071565;28;20338;-75
2022/09/30 01:25:56;;;;;;;;;;;;;;;;;;5088544;28;19938;-75
2022/09/30 01:28:21;;;;;;;;;;;;;;;;;;5066387;28;19944;-75
2022/09/30 01:30:47;;;;;;;;;;;;;;;;;;5088502;28;19912;-75
2022/09/30 01:33:12;;;;;;;;;;;;;;;;;;5070810;28;19920;-75
2022/09/30 01:35:37;;;;;;;;;;;;;;;;;;5072588;28;19966;-75
2022/09/30 01:38:03;;;;;;;;;;;;;;;;;;5072605;28;20319;-76
2022/09/30 01:40:29;;;;;;;;;;;;;;;;;;5071051;28;19917;-75
2022/09/30 01:42:55;;;;;;;;;;;;;;;;;;5072178;28;20066;-74
2022/09/30 01:45:20;;;;;;;;;;;;;;;;;;5084504;28;20444;-75
2022/09/30 01:47:45;;;;;;;;;;;;;;;;;;5072732;28;19957;-75
2022/09/30 01:50:11;;;;;;;;;;;;;;;;;;5088121;28;19925;-74
2022/09/30 01:52:36;;;;;;;;;;;;;;;;;;5060577;23;20383;-75
2022/09/30 01:55:02;;;;;;;;;;;;;;;;;;5071424;28;20054;-76
2022/09/30 01:57:27;;;;;;;;;;;;;;;;;;5028649;28;20236;-76
2022/09/30 01:59:52;;;;;;;;;;;;;;;;;;5052379;28;19913;-76
2022/09/30 02:02:18;;;;;;;;;;;;;;;;;;5049455;28;19917;-76
2022/09/30 02:04:43;;;;;;;;;;;;;;;;;;5035603;28;19924;-75
2022/09/30 02:07:09;;;;;;;;;;;;;;;;;;5031219;28;19913;-77
2022/09/30 02:09:34;;;;;;;;;;;;;;;;;;5032627;28;19913;-76
2022/09/30 02:12:00;;;;;;;;;;;;;;;;;;5030876;28;20331;-76
2022/09/30 02:14:25;;;;;;;;;;;;;;;;;;5029767;28;20333;-76
2022/09/30 02:16:50;;;;;;;;;;;;;;;;;;5050943;28;20363;-76
2022/09/30 02:19:16;;;;;;;;;;;;;;;;;;5050867;28;19909;-77
2022/09/30 02:21:41;;;;;;;;;;;;;;;;;;5047029;28;20289;-76
2022/09/30 02:24:07;;;;;;;;;;;;;;;;;;5051709;28;19917;-76
2022/09/30 02:26:32;;;;;;;;;;;;;;;;;;5047249;28;19927;-76
2022/09/30 02:28:58;;;;;;;;;;;;;;;;;;5050806;28;20129;-76
2022/09/30 02:31:23;;;;;;;;;;;;;;;;;;5048482;28;20351;-77
2022/09/30 02:33:48;;;;;;;;;;;;;;;;;;4995751;28;20392;-76
2022/09/30 02:36:15;;;;;;;;;;;;;;;;;;5011440;28;19918;-75
2022/09/30 02:38:40;;;;;;;;;;;;;;;;;;5043132;28;20004;-77
2022/09/30 02:41:05;;;;;;;;;;;;;;;;;;5011304;28;19944;-76
2022/09/30 02:43:31;;;;;;;;;;;;;;;;;;5027253;28;20367;-76
2022/09/30 02:45:56;;;;;;;;;;;;;;;;;;5034053;28;19913;-77
2022/09/30 02:48:21;;;;;;;;;;;;;;;;;;5050758;28;19913;-76
2022/09/30 02:50:47;;;;;;;;;;;;;;;;;;5047978;28;19912;-77
2022/09/30 02:53:13;;;;;;;;;;;;;;;;;;5050366;28;19956;-76
2022/09/30 02:55:38;;;;;;;;;;;;;;;;;;5050056;28;19959;-75
2022/09/30 02:58:04;;;;;;;;;;;;;;;;;;5051980;28;20375;-75
2022/09/30 03:00:29;;;;;;;;;;;;;;;;;;5047516;28;19913;-77
2022/09/30 03:02:54;;;;;;;;;;;;;;;;;;5051475;28;19912;-76
2022/09/30 03:05:20;;;;;;;;;;;;;;;;;;5051452;28;19920;-75
2022/09/30 03:07:45;;;;;;;;;;;;;;;;;;5046085;28;19966;-73
2022/09/30 03:10:11;;;;;;;;;;;;;;;;;;5051984;28;20055;-75
2022/09/30 03:12:36;;;;;;;;;;;;;;;;;;5050474;28;20323;-76
2022/09/30 03:15:01;;;;;;;;;;;;;;;;;;5051885;28;20261;-75
2022/09/30 03:17:27;;;;;;;;;;;;;;;;;;5048420;28;20343;-75
2022/09/30 03:19:52;;;;;;;;;;;;;;;;;;5031714;28;19914;-75
2022/09/30 03:22:18;;;;;;;;;;;;;;;;;;5031149;28;20485;-76
2022/09/30 03:24:43;;;;;;;;;;;;;;;;;;5038173;28;19917;-75
2022/09/30 03:27:09;;;;;;;;;;;;;;;;;;5053859;28;20330;-76
2022/09/30 03:29:34;;;;;;;;;;;;;;;;;;5048769;28;19940;-77
2022/09/30 03:31:59;;;;;;;;;;;;;;;;;;5054773;28;20168;-76
2022/09/30 03:34:26;;;;;;;;;;;;;;;;;;5054521;28;20261;-76
2022/09/30 03:36:51;;;;;;;;;;;;;;;;;;5050469;28;20388;-76
2022/09/30 03:39:17;;;;;;;;;;;;;;;;;;5053801;28;19920;-76
2022/09/30 03:41:42;;;;;;;;;;;;;;;;;;5052099;28;19920;-78
2022/09/30 03:44:08;;;;;;;;;;;;;;;;;;5054742;28;19924;-76
2022/09/30 03:46:34;;;;;;;;;;;;;;;;;;5033424;28;20319;-76
2022/09/30 03:49:00;;;;;;;;;;;;;;;;;;5053675;28;19924;-75
2022/09/30 03:51:25;;;;;;;;;;;;;;;;;;5055699;28;19912;-76
2022/09/30 03:53:52;;;;;;;;;;;;;;;;;;5050378;28;19970;-75
2022/09/30 03:56:17;;;;;;;;;;;;;;;;;;5055373;28;19913;-76
2022/09/30 03:58:46;;;;;;;;;;;;;;;;;;5053055;28;19963;-76
2022/09/30 04:01:11;;;;;;;;;;;;;;;;;;5054708;28;19978;-76
2022/09/30 04:03:36;;;;;;;;;;;;;;;;;;5052646;28;20383;-75
2022/09/30 04:06:02;;;;;;;;;;;;;;;;;;5017977;28;19913;-76
2022/09/30 04:08:27;;;;;;;;;;;;;;;;;;5015603;28;19921;-76
2022/09/30 04:10:53;;;;;;;;;;;;;;;;;;5047150;28;20005;-76
2022/09/30 04:13:18;;;;;;;;;;;;;;;;;;5033963;28;20383;-74
2022/09/30 04:15:43;;;;;;;;;;;;;;;;;;5038683;28;19913;-75
2022/09/30 04:18:09;;;;;;;;;;;;;;;;;;5053336;28;20441;-76
2022/09/30 04:20:34;;;;;;;;;;;;;;;;;;5054529;28;19916;-77
2022/09/30 04:23:00;;;;;;;;;;;;;;;;;;5034125;28;19921;-75
2022/09/30 04:25:25;;;;;;;;;;;;;;;;;;5013826;28;19921;-76
2022/09/30 04:27:50;;;;;;;;;;;;;;;;;;5027230;28;20380;-73
2022/09/30 04:30:16;;;;;;;;;;;;;;;;;;5033828;28;19951;-75
2022/09/30 04:32:43;;;;;;;;;;;;;;;;;;5036339;28;20445;-76
2022/09/30 04:35:09;;;;;;;;;;;;;;;;;;5056140;28;19920;-75
2022/09/30 04:37:34;;;;;;;;;;;;;;;;;;5055539;28;19912;-75
2022/09/30 04:40:00;;;;;;;;;;;;;;;;;;5037138;28;19924;-76
2022/09/30 04:42:26;;;;;;;;;;;;;;;;;;5033679;28;19913;-75
2022/09/30 04:44:51;;;;;;;;;;;;;;;;;;5038011;28;19970;-75
2022/09/30 04:47:17;;;;;;;;;;;;;;;;;;5053994;28;19913;-76
2022/09/30 04:49:42;;;;;;;;;;;;;;;;;;5051585;28;20011;-76
2022/09/30 04:52:07;;;;;;;;;;;;;;;;;;5051392;28;20248;-76
2022/09/30 04:54:33;;;;;;;;;;;;;;;;;;5054290;28;19967;-77
2022/09/30 04:56:58;;;;;;;;;;;;;;;;;;5048192;28;19924;-76
2022/09/30 04:59:23;;;;;;;;;;;;;;;;;;5052882;28;19955;-78
2022/09/30 05:01:49;;;;;;;;;;;;;;;;;;5053644;28;19974;-76
2022/09/30 05:04:15;;;;;;;;;;;;;;;;;;5034127;28;19917;-77
2022/09/30 05:06:40;;;;;;;;;;;;;;;;;;5032286;28;19921;-76
2022/09/30 05:09:06;;;;;;;;;;;;;;;;;;5048505;28;19912;-76
2022/09/30 05:11:31;;;;;;;;;;;;;;;;;;5053149;28;19966;-76
2022/09/30 05:13:56;;;;;;;;;;;;;;;;;;5046933;28;19924;-75
2022/09/30 05:16:22;;;;;;;;;;;;;;;;;;5053102;28;19912;-76
2022/09/30 05:18:48;;;;;;;;;;;;;;;;;;5050582;28;20016;-76
2022/09/30 05:21:13;;;;;;;;;;;;;;;;;;5013935;28;20003;-77
2022/09/30 05:23:39;;;;;;;;;;;;;;;;;;5012714;28;19935;-76
2022/09/30 05:26:05;;;;;;;;;;;;;;;;;;5038769;28;19917;-76
2022/09/30 05:28:30;;;;;;;;;;;;;;;;;;5032515;28;19917;-77
2022/09/30 05:30:56;;;;;;;;;;;;;;;;;;5035564;28;19963;-76
2022/09/30 05:33:22;;;;;;;;;;;;;;;;;;5052126;28;20390;-76
2022/09/30 05:35:47;;;;;;;;;;;;;;;;;;5051105;28;20004;-76
2022/09/30 05:38:12;;;;;;;;;;;;;;;;;;5049672;28;20065;-74
2022/09/30 05:40:38;;;;;;;;;;;;;;;;;;5050589;28;20011;-76
2022/09/30 05:43:03;;;;;;;;;;;;;;;;;;5046074;28;19916;-76
2022/09/30 05:45:29;;;;;;;;;;;;;;;;;;5051610;28;20433;-75
2022/09/30 05:47:54;;;;;;;;;;;;;;;;;;5047146;28;19961;-75
2022/09/30 05:50:23;;;;;;;;;;;;;;;;;;5050578;28;19996;-76
2022/09/30 05:52:48;;;;;;;;;;;;;;;;;;5050264;28;19952;-76
2022/09/30 05:55:13;;;;;;;;;;;;;;;;;;5047278;28;19913;-75
2022/09/30 05:57:39;;;;;;;;;;;;;;;;;;5050856;28;19920;-75
2022/09/30 06:00:04;;;;;;;;;;;;;;;;;;5045988;28;20399;-75
2022/09/30 06:02:37;;;;;;;;;;;;;;;;;;5051711;28;20042;-76
2022/09/30 06:05:02;;;;;;;;;;;;;;;;;;5051546;28;20004;-76
2022/09/30 06:07:29;;;;;;;;;;;;;;;;;;5051705;28;22295;-77
2022/09/30 06:09:55;;;;;;;;;;;;;;;;;;5052379;28;19913;-75
2022/09/30 06:12:20;;;;;;;;;;;;;;;;;;5046965;28;19919;-75
2022/09/30 06:14:46;;;;;;;;;;;;;;;;;;5051782;28;19912;-75
2022/09/30 06:17:11;;;;;;;;;;;;;;;;;;5047232;28;20284;-75
2022/09/30 06:19:36;;;;;;;;;;;;;;;;;;5050412;28;19963;-77
2022/09/30 06:22:02;;;;;;;;;;;;;;;;;;5050542;28;19970;-77
2022/09/30 06:24:27;;;;;;;;;;;;;;;;;;5045729;28;19959;-74
2022/09/30 06:26:53;;;;;;;;;;;;;;;;;;5051050;28;19913;-76
2022/09/30 06:29:18;;;;;;;;;;;;;;;;;;5049090;28;20273;-76
2022/09/30 06:31:43;;;;;;;;;;;;;;;;;;5050423;28;20336;-76
2022/09/30 06:34:09;;;;;;;;;;;;;;;;;;5048119;28;19943;-75
2022/09/30 06:36:34;;;;;;;;;;;;;;;;;;5030268;28;19940;-75
2022/09/30 06:39:00;;;;;;;;;;;;;;;;;;5030580;28;20007;-76
2022/09/30 06:41:26;;;;;;;;;;;;;;;;;;5043287;28;19913;-77
2022/09/30 06:43:51;;;;;;;;;;;;;;;;;;5051363;28;20016;-76
2022/09/30 06:46:17;;;;;;;;;;;;;;;;;;5046822;28;20352;-74
2022/09/30 06:48:42;;;;;;;;;;;;;;;;;;5030247;28;19913;-74
2022/09/30 06:51:09;;;;;;;;;;;;;;;;;;5014226;28;19963;-76
2022/09/30 06:53:35;;;;;;;;;;;;;;;;;;5035104;28;19921;-75
2022/09/30 06:56:00;;;;;;;;;;;;;;;;;;5031544;28;19917;-76
2022/09/30 06:58:25;;;;;;;;;;;;;;;;;;5043367;28;20412;-76
2022/09/30 07:00:51;;;;;;;;;;;;;;;;;;5055732;28;20303;-76
2022/09/30 07:03:16;;;;;;;;;;;;;;;;;;5051227;28;19921;-78
2022/09/30 07:05:41;;;;;;;;;;;;;;;;;;5055441;28;19916;-75
2022/09/30 07:08:09;;;;;;;;;;;;;;;;;;5058069;28;19912;-75
2022/09/30 07:10:34;;;;;;;;;;;;;;;;;;5053445;28;20170;-77
2022/09/30 07:13:01;;;;;;;;;;;;;;;;;;5055677;28;19917;-76
2022/09/30 07:15:26;;;;;;;;;;;;;;;;;;5050101;28;19912;-77
2022/09/30 07:17:52;;;;;;;;;;;;;;;;;;5053859;28;20487;-77
2022/09/30 07:20:17;;;;;;;;;;;;;;;;;;5051804;28;19929;-76
2022/09/30 07:22:42;;;;;;;;;;;;;;;;;;5052268;28;19948;-76
2022/09/30 07:25:08;;;;;;;;;;;;;;;;;;5053797;28;19912;-77
2022/09/30 07:27:34;;;;;;;;;;;;;;;;;;5050106;28;20292;-77
2022/09/30 07:30:00;;;;;;;;;;;;;;;;;;5054862;28;19916;-76
2022/09/30 07:32:26;;;;;;;;;;;;;;;;;;5049763;28;19920;-76
2022/09/30 07:34:51;;;;;;;;;;;;;;;;;;5053607;28;20337;-76
2022/09/30 07:37:17;;;;;;;;;;;;;;;;;;5055154;28;19952;-77
2022/09/30 07:39:43;;;;;;;;;;;;;;;;;;5053386;28;19913;-77
2022/09/30 07:42:08;;;;;;;;;;;;;;;;;;5054693;28;19921;-75
2022/09/30 07:44:35;;;;;;;;;;;;;;;;;;5050970;28;19990;-74
2022/09/30 07:47:01;;;;;;;;;;;;;;;;;;5053500;28;19978;-75
2022/09/30 07:49:27;;;;;;;;;;;;;;;;;;5050910;28;20372;-74
2022/09/30 07:51:52;;;;;;;;;;;;;;;;;;5051073;28;20000;-75
2022/09/30 07:54:17;;;;;;;;;;;;;;;;;;5054684;28;20232;-73
2022/09/30 07:56:43;;;;;;;;;;;;;;;;;;5033655;28;20280;-75
2022/09/30 07:59:08;;;;;;;;;;;;;;;;;;5053679;28;19996;-75
2022/09/30 08:01:34;;;;;;;;;;;;;;;;;;5050469;28;20280;-75
2022/09/30 08:04:00;;;;;;;;;;;;;;;;;;5054154;28;20273;-74
2022/09/30 08:06:25;;;;;;;;;;;;;;;;;;5053140;28;19920;-76
2022/09/30 08:08:50;;;;;;;;;;;;;;;;;;5048671;28;19964;-74
2022/09/30 08:11:16;;;;;;;;;;;;;;;;;;5052803;28;20002;-75
2022/09/30 08:13:41;;;;;;;;;;;;;;;;;;5049256;28;19913;-75
2022/09/30 08:16:06;;;;;;;;;;;;;;;;;;5052349;28;20284;-74
2022/09/30 08:18:32;;;;;;;;;;;;;;;;;;5054926;28;20398;-75
2022/09/30 08:20:59;;;;;;;;;;;;;;;;;;5043092;28;20348;-74
2022/09/30 08:23:25;;;;;;;;;;;;;;;;;;5021947;28;20376;-74
2022/09/30 08:25:50;;;;;;;;;;;;;;;;;;5037502;28;19936;-76
2022/09/30 08:28:17;;;;;;;;;;;;;;;;;;5056938;28;19913;-75
2022/09/30 08:30:42;;;;;;;;;;;;;;;;;;5055232;28;20287;-76
2022/09/30 08:33:07;;;;;;;;;;;;;;;;;;5050934;28;19917;-73
2022/09/30 08:35:33;;;;;;;;;;;;;;;;;;5052696;28;20022;-74
2022/09/30 08:37:58;;;;;;;;;;;;;;;;;;5051612;28;20333;-74
2022/09/30 08:40:23;;;;;;;;;;;;;;;;;;5053686;28;20368;-75
2022/09/30 08:42:49;;;;;;;;;;;;;;;;;;5051408;28;19948;-74
2022/09/30 08:45:14;;;;;;;;;;;;;;;;;;5032896;28;19914;-75
2022/09/30 08:47:39;;;;;;;;;;;;;;;;;;5032353;28;19913;-74
2022/09/30 08:50:05;;;;;;;;;;;;;;;;;;5045441;28;19920;-75
2022/09/30 08:52:30;;;;;;;;;;;;;;;;;;5053006;28;20012;-75
2022/09/30 08:54:56;;;;;;;;;;;;;;;;;;5041545;28;19992;-74
2022/09/30 08:57:21;;;;;;;;;;;;;;;;;;5051837;28;19998;-74
2022/09/30 08:59:47;;;;;;;;;;;;;;;;;;5051927;28;19919;-76
2022/09/30 09:02:12;;;;;;;;;;;;;;;;;;5048170;28;20396;-75
2022/09/30 09:04:37;;;;;;;;;;;;;;;;;;5051545;28;19986;-74
2022/09/30 09:07:03;;;;;;;;;;;;;;;;;;5051637;28;19913;-75
2022/09/30 09:09:31;;;;;;;;;;;;;;;;;;5051454;28;20337;-74
2022/09/30 09:11:56;;;;;;;;;;;;;;;;;;5046247;28;19917;-74
2022/09/30 09:14:22;;;;;;;;;;;;;;;;;;5051193;28;19966;-74
2022/09/30 09:16:47;;;;;;;;;;;;;;;;;;5052827;28;20406;-74
2022/09/30 09:19:14;;;;;;;;;;;;;;;;;;5050497;28;20015;-74
2022/09/30 09:21:39;;;;;;;;;;;;;;;;;;5050787;28;19917;-76
2022/09/30 09:24:04;;;;;;;;;;;;;;;;;;5034522;28;19917;-76
2022/09/30 09:26:30;;;;;;;;;;;;;;;;;;5012960;28;19921;-74
2022/09/30 09:28:55;;;;;;;;;;;;;;;;;;5015301;28;19920;-73
2022/09/30 09:31:20;;;;;;;;;;;;;;;;;;5049522;28;20007;-73
2022/09/30 09:33:46;;;;;;;;;;;;;;;;;;5050688;28;20047;-74
2022/09/30 09:36:11;;;;;;;;;;;;;;;;;;5050979;28;19909;-73
2022/09/30 09:38:36;;;;;;;;;;;;;;;;;;5051264;28;19920;-74
2022/09/30 09:41:02;;;;;;;;;;;;;;;;;;5047910;28;19923;-74
2022/09/30 09:43:32;;;;;;;;;;;;;;;;;;5050916;28;20020;-73
2022/09/30 09:45:57;;;;;;;;;;;;;;;;;;5050089;28;19920;-74
2022/09/30 09:48:23;;;;;;;;;;;;;;;;;;5048238;28;19913;-73
2022/09/30 09:50:48;;;;;;;;;;;;;;;;;;5052199;28;20169;-75
2022/09/30 09:53:15;;;;;;;;;;;;;;;;;;5046520;28;20290;-74
2022/09/30 09:55:40;;;;;;;;;;;;;;;;;;5050633;28;19967;-76
2022/09/30 09:58:06;;;;;;;;;;;;;;;;;;5048590;28;20295;-74
2022/09/30 10:01:10;;;;;;;;;;;;;;;;;;5050148;28;20004;-75
2022/09/30 10:03:25;;;;;;;;;;;;;;;;;;5048774;28;19923;-75
2022/09/30 10:05:51;;;;;;;;;;;;;;;;;;5046346;28;19936;-74
2022/09/30 10:08:16;;;;;;;;;;;;;;;;;;5050707;28;19920;-73
2022/09/30 10:10:41;;;;;;;;;;;;;;;;;;5045366;28;19912;-75
2022/09/30 10:13:07;;;;;;;;;;;;;;;;;;5050373;28;20378;-75
2022/09/30 10:15:35;;;;;;;;;;;;;;;;;;5050368;28;19913;-74
2022/09/30 10:18:00;;;;;;;;;;;;;;;;;;5050368;28;19916;-74
2022/09/30 10:20:26;;;;;;;;;;;;;;;;;;5051486;28;20445;-76
2022/09/30 10:22:52;;;;;;;;;;;;;;;;;;5047187;28;19935;-76
2022/09/30 10:25:17;;;;;;;;;;;;;;;;;;5052318;28;20412;-75
2022/09/30 10:27:42;;;;;;;;;;;;;;;;;;5044795;28;20292;-74
2022/09/30 10:30:08;;;;;;;;;;;;;;;;;;5033769;28;20066;-75
2022/09/30 10:32:33;;;;;;;;;;;;;;;;;;5052637;28;19928;-74
2022/09/30 10:34:58;;;;;;;;;;;;;;;;;;5051867;28;20396;-76
2022/09/30 10:37:24;;;;;;;;;;;;;;;;;;5055774;28;19971;-74
2022/09/30 10:39:49;;;;;;;;;;;;;;;;;;5050675;28;19912;-75
2022/09/30 10:42:15;;;;;;;;;;;;;;;;;;5054068;28;20307;-75
2022/09/30 10:44:40;;;;;;;;;;;;;;;;;;5052614;28;19943;-75
2022/09/30 10:47:05;;;;;;;;;;;;;;;;;;5054107;28;19913;-74
2022/09/30 10:49:31;;;;;;;;;;;;;;;;;;5054048;28;19943;-76
2022/09/30 10:51:56;;;;;;;;;;;;;;;;;;5051755;28;19917;-75
2022/09/30 10:54:21;;;;;;;;;;;;;;;;;;5053804;28;20371;-75
2022/09/30 10:56:47;;;;;;;;;;;;;;;;;;5051552;28;19943;-75
2022/09/30 10:59:15;;;;;;;;;;;;;;;;;;5055159;28;20000;-76
2022/09/30 11:01:40;;;;;;;;;;;;;;;;;;5054255;28;19912;-74
2022/09/30 11:04:06;;;;;;;;;;;;;;;;;;5050789;28;19917;-76
2022/09/30 11:06:31;;;;;;;;;;;;;;;;;;5054091;28;20376;-75
2022/09/30 11:08:57;;;;;;;;;;;;;;;;;;5040868;28;20363;-76
2022/09/30 11:11:22;;;;;;;;;;;;;;;;;;5053717;28;20284;-75
2022/09/30 11:13:47;;;;;;;;;;;;;;;;;;5051476;28;20380;-76
2022/09/30 11:16:13;;;;;;;;;;;;;;;;;;5053754;28;20402;-76
2022/09/30 11:18:39;;;;;;;;;;;;;;;;;;5054918;28;19924;-75
2022/09/30 11:21:04;;;;;;;;;;;;;;;;;;5051410;28;19913;-76
2022/09/30 11:23:30;;;;;;;;;;;;;;;;;;5041783;28;19917;-75
2022/09/30 11:25:55;;;;;;;;;;;;;;;;;;5070382;28;20291;-75
2022/09/30 11:28:20;;;;;;;;;;;;;;;;;;5068963;28;19909;-76
2022/09/30 11:30:47;;;;;;;;;;;;;;;;;;5061126;28;20479;-75
2022/09/30 11:33:12;;;;;;;;;;;;;;;;;;5053417;28;19952;-75
2022/09/30 11:35:40;;;;;;;;;;;;;;;;;;5037706;28;19936;-76
2022/09/30 11:38:05;;;;;;;;;;;;;;;;;;5050875;28;19919;-76
2022/09/30 11:40:31;;;;;;;;;;;;;;;;;;5052972;28;20003;-76
2022/09/30 11:42:56;;;;;;;;;;;;;;;;;;5049782;28;20338;-75
2022/09/30 11:45:21;;;;;;;;;;;;;;;;;;5051854;28;19913;-76
2022/09/30 11:47:47;;;;;;;;;;;;;;;;;;5052980;28;19913;-76
2022/09/30 11:50:12;;;;;;;;;;;;;;;;;;5049068;28;19965;-76
2022/09/30 11:52:38;;;;;;;;;;;;;;;;;;5053911;28;19917;-76
2022/09/30 11:55:05;;;;;;;;;;;;;;;;;;5047838;28;19914;-76
2022/09/30 11:57:30;;;;;;;;;;;;;;;;;;5054230;28;20391;-76
2022/09/30 11:59:56;;;;;;;;;;;;;;;;;;5054188;28;19990;-75
2022/09/30 12:02:21;;;;;;;;;;;;;;;;;;5048694;28;19920;-75
2022/09/30 12:04:46;;;;;;;;;;;;;;;;;;5052614;28;19924;-75
2022/09/30 12:07:12;;;;;;;;;;;;;;;;;;5053945;28;19931;-76
2022/09/30 12:09:37;;;;;;;;;;;;;;;;;;5052411;28;20342;-76
2022/09/30 12:12:03;;;;;;;;;;;;;;;;;;5052758;28;19915;-75
2022/09/30 12:14:29;;;;;;;;;;;;;;;;;;5053630;28;19916;-74
2022/09/30 12:16:55;;;;;;;;;;;;;;;;;;5052118;28;20380;-75
2022/09/30 12:19:21;;;;;;;;;;;;;;;;;;5014997;28;20295;-76
2022/09/30 12:21:46;;;;;;;;;;;;;;;;;;5052875;28;19913;-73
2022/09/30 12:24:12;;;;;;;;;;;;;;;;;;5047485;28;20394;-74
2022/09/30 12:26:38;;;;;;;;;;;;;;;;;;5052223;28;19916;-74
2022/09/30 12:31:49;;;;;;;;;;;;;;;;;;5034911;28;19913;-75
2022/09/30 12:34:14;;;;;;;;;;;;;;;;;;5047342;28;19960;-75
2022/09/30 12:36:39;;;;;;;;;;;;;;;;;;5033707;28;20351;-76
2022/09/30 12:39:05;;;;;;;;;;;;;;;;;;5040285;28;19916;-76
2022/09/30 12:41:30;;;;;;;;;;;;;;;;;;5031393;28;19913;-76
2022/09/30 12:43:56;;;;;;;;;;;;;;;;;;5037405;28;20435;-88
2022/09/30 12:46:21;;;;;;;;;;;;;;;;;;5011426;28;20268;-75
2022/09/30 12:48:47;;;;;;;;;;;;;;;;;;5041578;28;19920;-76
2022/09/30 12:51:12;;;;;;;;;;;;;;;;;;5034300;28;19920;-74
2022/09/30 12:53:38;;;;;;;;;;;;;;;;;;5041195;28;20279;-82
2022/09/30 12:56:03;;;;;;;;;;;;;;;;;;5055869;28;20403;-80
2022/09/30 12:58:29;;;;;;;;;;;;;;;;;;5041023;28;20241;-80
2022/09/30 13:00:54;;;;;;;;;;;;;;;;;;5024447;28;19913;-79
2022/09/30 13:03:20;;;;;;;;;;;;;;;;;;5035076;28;19918;-79
2022/09/30 13:05:45;;;;;;;;;;;;;;;;;;5046814;28;19956;-81
2022/09/30 13:08:11;;;;;;;;;;;;;;;;;;5023741;28;19975;-80
2022/09/30 13:10:36;;;;;;;;;;;;;;;;;;5052036;28;19913;-80
2022/09/30 13:13:02;;;;;;;;;;;;;;;;;;5050056;28;19921;-81
2022/09/30 13:15:27;;;;;;;;;;;;;;;;;;5052178;28;19917;-81
2022/09/30 13:17:53;;;;;;;;;;;;;;;;;;5053195;28;20004;-81
2022/09/30 13:20:19;;;;;;;;;;;;;;;;;;5051944;28;19947;-80
2022/09/30 13:22:45;;;;;;;;;;;;;;;;;;5051857;28;19969;-81
2022/09/30 13:25:10;;;;;;;;;;;;;;;;;;5052832;28;20110;-77
2022/09/30 13:27:36;;;;;;;;;;;;;;;;;;5053580;28;20299;-78
2022/09/30 13:30:01;;;;;;;;;;;;;;;;;;5040685;28;19924;-79
2022/09/30 13:32:27;;;;;;;;;;;;;;;;;;5032611;28;20241;-79
2022/09/30 13:34:55;;;;;;;;;;;;;;;;;;5031098;28;19913;-79
2022/09/30 13:37:20;;;;;;;;;;;;;;;;;;5032268;28;19913;-79
2022/09/30 13:39:46;;;;;;;;;;;;;;;;;;5014908;28;19921;-80
2022/09/30 13:42:12;;;;;;;;;;;;;;;;;;5032451;28;19917;-80
2022/09/30 13:44:38;;;;;;;;;;;;;;;;;;5031147;28;19917;-80
2022/09/30 13:47:04;;;;;;;;;;;;;;;;;;5014051;28;20356;-80
2022/09/30 13:49:30;;;;;;;;;;;;;;;;;;5031505;28;20022;-79
2022/09/30 13:51:55;;;;;;;;;;;;;;;;;;5032449;28;19956;-80
2022/09/30 13:54:22;;;;;;;;;;;;;;;;;;5031333;28;19920;-81
2022/09/30 13:56:47;;;;;;;;;;;;;;;;;;5032290;28;20319;-80
2022/09/30 13:59:13;;;;;;;;;;;;;;;;;;5031035;28;19913;-81
2022/09/30 14:01:39;;;;;;;;;;;;;;;;;;5030251;28;20486;-80
2022/09/30 14:04:05;;;;;;;;;;;;;;;;;;5031466;28;19979;-79
2022/09/30 14:06:30;;;;;;;;;;;;;;;;;;5031521;28;19917;-81
2022/09/30 14:08:56;;;;;;;;;;;;;;;;;;5030688;28;19913;-79
2022/09/30 14:11:21;;;;;;;;;;;;;;;;;;5030971;28;20431;-80
2022/09/30 14:13:49;;;;;;;;;;;;;;;;;;5030491;28;19914;-79
2022/09/30 14:16:15;;;;;;;;;;;;;;;;;;5030999;28;20151;-81
2022/09/30 14:18:40;;;;;;;;;;;;;;;;;;5030571;28;20398;-80
2022/09/30 14:21:05;;;;;;;;;;;;;;;;;;5031780;28;20012;-80
2022/09/30 14:23:31;;;;;;;;;;;;;;;;;;5032632;28;19943;-79
2022/09/30 14:25:56;;;;;;;;;;;;;;;;;;5031347;28;20007;-81
2022/09/30 14:28:22;;;;;;;;;;;;;;;;;;5022623;28;20292;-80
2022/09/30 14:31:07;;;;;;;;;;;;;;;;;;4995656;28;20000;-80
2022/09/30 14:33:33;;;;;;;;;;;;;;;;;;5005142;28;19914;-81
2022/09/30 14:35:58;;;;;;;;;;;;;;;;;;5012799;28;19953;-82
2022/09/30 14:38:26;;;;;;;;;;;;;;;;;;4994920;28;19941;-80
2022/09/30 14:40:52;;;;;;;;;;;;;;;;;;5012429;28;19920;-81
2022/09/30 14:43:17;;;;;;;;;;;;;;;;;;4994577;28;20338;-81
2022/09/30 14:45:43;;;;;;;;;;;;;;;;;;5004952;28;19913;-81
2022/09/30 14:48:08;;;;;;;;;;;;;;;;;;5031441;28;19913;-81
2022/09/30 14:50:34;;;;;;;;;;;;;;;;;;5031699;28;20376;-81
2022/09/30 14:53:02;;;;;;;;;;;;;;;;;;5030274;28;20411;-80
2022/09/30 14:55:27;;;;;;;;;;;;;;;;;;5032143;28;20504;-83
2022/09/30 14:57:53;;;;;;;;;;;;;;;;;;5031634;28;19929;-83
2022/09/30 15:00:19;;;;;;;;;;;;;;;;;;5031338;28;19917;-78
2022/09/30 15:02:45;;;;;;;;;;;;;;;;;;5031085;28;20492;-76
2022/09/30 15:05:10;;;;;;;;;;;;;;;;;;5030093;28;19917;-78
2022/09/30 15:07:35;;;;;;;;;;;;;;;;;;5034641;28;20442;-77
2022/09/30 15:10:01;;;;;;;;;;;;;;;;;;5029901;28;19979;-77
2022/09/30 15:12:27;;;;;;;;;;;;;;;;;;5029835;28;20423;-77
2022/09/30 15:14:52;;;;;;;;;;;;;;;;;;5030269;28;19936;-78
2022/09/30 15:17:18;;;;;;;;;;;;;;;;;;5014368;28;20384;-78
2022/09/30 15:19:43;;;;;;;;;;;;;;;;;;5034725;28;19913;-76
2022/09/30 15:22:09;;;;;;;;;;;;;;;;;;5024679;28;20042;-77
2022/09/30 15:24:35;;;;;;;;;;;;;;;;;;5013557;28;20384;-78
2022/09/30 15:27:01;;;;;;;;;;;;;;;;;;5015144;28;20050;-76
2022/09/30 15:29:27;;;;;;;;;;;;;;;;;;5013529;28;19914;-77
2022/09/30 15:31:52;;;;;;;;;;;;;;;;;;5014834;28;20270;-77
2022/09/30 15:34:18;;;;;;;;;;;;;;;;;;5021865;28;20058;-77
2022/09/30 15:36:43;;;;;;;;;;;;;;;;;;5033439;28;19922;-77
2022/09/30 15:39:08;;;;;;;;;;;;;;;;;;5015194;28;19923;-76
2022/09/30 15:41:34;;;;;;;;;;;;;;;;;;5034521;28;19936;-77
2022/09/30 15:44:01;;;;;;;;;;;;;;;;;;5033052;28;20008;-76
2022/09/30 15:46:26;;;;;;;;;;;;;;;;;;5033354;28;19913;-78
2022/09/30 15:48:52;;;;;;;;;;;;;;;;;;5034369;28;20464;-78
2022/09/30 15:51:18;;;;;;;;;;;;;;;;;;5034005;28;20388;-77
2022/09/30 15:53:43;;;;;;;;;;;;;;;;;;5034875;28;19913;-77
2022/09/30 15:56:09;;;;;;;;;;;;;;;;;;5033792;28;20004;-78
2022/09/30 15:58:38;;;;;;;;;;;;;;;;;;5020458;28;20441;-77
2022/09/30 16:01:03;;;;;;;;;;;;;;;;;;5033690;28;19913;-77
2022/09/30 16:03:29;;;;;;;;;;;;;;;;;;5019400;28;19921;-77
2022/09/30 16:05:54;;;;;;;;;;;;;;;;;;5019211;28;19913;-78
2022/09/30 16:08:21;;;;;;;;;;;;;;;;;;5020239;28;19948;-77
2022/09/30 16:10:47;;;;;;;;;;;;;;;;;;5022273;28;19917;-77
2022/09/30 16:13:12;;;;;;;;;;;;;;;;;;5019646;28;19981;-76
2022/09/30 16:15:39;;;;;;;;;;;;;;;;;;5037829;28;19913;-76
2022/09/30 16:18:04;;;;;;;;;;;;;;;;;;5039955;28;19913;-77
2022/09/30 16:20:30;;;;;;;;;;;;;;;;;;5038674;28;19913;-76
2022/09/30 16:22:55;;;;;;;;;;;;;;;;;;5040406;28;19995;-76
2022/09/30 16:25:21;;;;;;;;;;;;;;;;;;5041155;28;19917;-77
2022/09/30 16:27:46;;;;;;;;;;;;;;;;;;5041193;28;20307;-76
2022/09/30 16:30:11;;;;;;;;;;;;;;;;;;5039221;28;19967;-77
2022/09/30 16:32:37;;;;;;;;;;;;;;;;;;5039494;28;19972;-76
2022/09/30 16:35:02;;;;;;;;;;;;;;;;;;5039012;28;20395;-78
2022/09/30 16:37:28;;;;;;;;;;;;;;;;;;5040123;28;19913;-77